Seabourn Sojourn — C6YA5 — position and weather

sailwx.info

Track history (hours):
 
Tides and Currents Weather Stations Pressure Air Temp Water Temp Dewpoint Dewpoint Depression Visibility Wind Speed Wind Dir Waves Ship Positions

Seabourn Sojourn

Last reported at 2018-Dec-12 14:00 UTC. Time now 2018-Dec-12 15:06 UTC.
Position S 37°12' E 150°18'.

Length 198 m; draft 6.7 m.

Type: Ship. MMSI: 311027100.

Wind from 040 at 30 knots

Date/timePositionNaut miles runAvg speedWind from/ knotsBaromVisibWave heightAir tempDewpointWater temp
2018-Dec-12 14:00S 37°12' E 150°18'1212.0 040 / 30
2018-Dec-12 13:00S 37°00' E 150°18'1818.0
2018-Dec-12 12:00S 36°42' E 150°18'1212.0 010 / 261010.0
2018-Dec-12 11:00S 36°30' E 150°18'1212.0 030 / 221010.0
2018-Dec-12 10:00S 36°18' E 150°18'1818.0 050 / 191010.0
2018-Dec-12 09:00S 36°00' E 150°18'1312.9 050 / 191010.0
2018-Dec-12 08:00S 35°48' E 150°12'6 1.5 050 / 231009.0
2018-Dec-12 04:00S 35°42' E 150°12'0 0.0 060 / 211015.010.8
2018-Dec-12 03:00S 35°42' E 150°12'0 0.0 060 / 211015.010.8
2018-Dec-12 01:00S 35°42' E 150°12'0 0.0 060 / 211015.010.8
2018-Dec-11 22:00S 35°42' E 150°12'0 0.0 030 / 10 10.8
2018-Dec-11 21:00S 35°42' E 150°12'19 6.3 080 / 5 10.8
2018-Dec-11 18:00S 35°30' E 150°30'4611.6 080 / 101016.0
2018-Dec-11 14:00S 34°54' E 151°06'2512.3 1018.0
2018-Dec-11 12:00S 34°30' E 151°12'2012.4 120 / 101018.0
2018-Dec-11 10:25S 34°11' E 151°19'612.3
2018-Dec-11 09:55S 34°06' E 151°22'512.4
2018-Dec-11 09:31S 34°01' E 151°25'511.0
2018-Dec-11 09:00S 33°56' E 151°25'612.2
2018-Dec-11 08:30S 33°51' E 151°20'4 8.7
2018-Dec-11 08:00S 33°51' E 151°15'4376.7
2018-Dec-11 08:00S 33°48' E 151°12'4 7.4 110 / 101018.0 5.4
2018-Dec-11 07:29S 33°52' E 151°11'0 0.3
2018-Dec-11 06:59S 33°52' E 151°11'0 0.0
2018-Dec-11 06:23S 33°52' E 151°11'0 0.0
2018-Dec-11 05:59S 33°52' E 151°11'0 0.0
2018-Dec-11 05:29S 33°52' E 151°11'0 0.0
2018-Dec-11 04:59S 33°52' E 151°11'0 0.0
2018-Dec-11 04:23S 33°52' E 151°11'0 0.0
2018-Dec-11 03:59S 33°52' E 151°11'0 0.0
2018-Dec-11 03:29S 33°52' E 151°11'0 0.0
2018-Dec-11 02:59S 33°52' E 151°11'0 0.0
2018-Dec-11 02:17S 33°52' E 151°11'0 0.0
2018-Dec-11 01:53S 33°52' E 151°11'0 0.0
2018-Dec-11 01:23S 33°52' E 151°11'0 0.0
2018-Dec-11 00:53S 33°52' E 151°11'0 0.0
2018-Dec-11 00:29S 33°52' E 151°11'0 0.0
2018-Dec-10 23:53S 33°52' E 151°11'0 0.0
2018-Dec-10 23:26S 33°52' E 151°11'613.1
2018-Dec-10 23:00S 33°48' E 151°06'6448.3 170 / 81020.0
2018-Dec-10 22:59S 33°52' E 151°11'0 0.0
2018-Dec-10 22:29S 33°52' E 151°11'611.7
2018-Dec-10 22:00S 33°48' E 151°06'6 8.0 170 / 81019.0
2018-Dec-10 21:17S 33°52' E 151°11'620.0
2018-Dec-10 21:00S 33°48' E 151°06'6438.7 170 / 81019.0
2018-Dec-10 20:59S 33°52' E 151°11'6 5.8
2018-Dec-10 20:00S 33°48' E 151°06'6458.2 160 / 51019.010.8 23.418.327.7
2018-Dec-10 19:59S 33°52' E 151°11'0 0.0
2018-Dec-10 19:29S 33°52' E 151°11'0 0.0
2018-Dec-10 18:29S 33°52' E 151°11'611.8
2018-Dec-10 18:00S 33°48' E 151°06'651.0 160 / 51018.0
2018-Dec-10 17:53S 33°52' E 151°11'0 0.0
2018-Dec-10 17:23S 33°52' E 151°11'614.8
2018-Dec-10 17:00S 33°48' E 151°06'6468.6 090 / 21018.0
2018-Dec-10 16:59S 33°52' E 151°11'0 0.0
2018-Dec-10 16:17S 33°52' E 151°11'619.9
2018-Dec-10 16:00S 33°48' E 151°06'6491.0 090 / 21018.0
2018-Dec-10 15:59S 33°52' E 151°11'0 0.0
2018-Dec-10 15:29S 33°52' E 151°11'611.8
2018-Dec-10 15:00S 33°48' E 151°06'6458.2 090 / 21019.0
2018-Dec-10 14:59S 33°52' E 151°11'0 0.0
2018-Dec-10 14:23S 33°52' E 151°11'614.8
2018-Dec-10 14:00S 33°48' E 151°06'627.0 090 / 21019.0
2018-Dec-10 13:47S 33°52' E 151°11'0 0.0
2018-Dec-10 13:29S 33°52' E 151°11'0 0.0
2018-Dec-10 12:59S 33°52' E 151°11'0 0.0
2018-Dec-10 12:20S 33°52' E 151°11'6 4.3
2018-Dec-10 11:00S 33°48' E 151°06'0 0.0 040 / 61018.0
2018-Dec-10 09:00S 33°48' E 151°06'0 0.0 040 / 61017.0
2018-Dec-10 08:00S 33°48' E 151°06'6 9.3 040 / 61016.0
2018-Dec-10 07:23S 33°52' E 151°11'614.8
2018-Dec-10 07:00S 33°48' E 151°06'6448.6 010 / 11014.0
2018-Dec-10 06:59S 33°52' E 151°11'0 0.0
2018-Dec-10 06:23S 33°52' E 151°11'1 2.0
2018-Dec-10 06:00S 33°51' E 151°12'3 5.1
2018-Dec-10 05:29S 33°51' E 151°15'511.1
2018-Dec-10 05:00S 33°50' E 151°21'3224.1
2018-Dec-10 05:00S 33°48' E 151°18'817.0 020 / 71014.0
2018-Dec-10 04:30S 33°45' E 151°27'815.7
2018-Dec-10 04:01S 33°40' E 151°34'5288.1
2018-Dec-10 04:00S 33°36' E 151°30'2713.5 020 / 71015.0
2018-Dec-10 02:00S 33°18' E 151°54'1720.1 010 / 81015.0
2018-Dec-10 01:09S 33°08' E 152°11'214.4
2018-Dec-10 01:00S 33°07' E 152°12'5341.1
2018-Dec-10 01:00S 33°06' E 152°06'1122.9 150 / 3
2018-Dec-10 00:30S 33°01' E 152°18'713.9
2018-Dec-10 00:00S 32°56' E 152°24'815.1
2018-Dec-09 23:30S 32°51' E 152°30'715.0
2018-Dec-09 23:00S 32°46' E 152°36'4240.5
2018-Dec-09 23:00S 32°42' E 152°36'611.7 330 / 181016.010.8 23.418.327.7
2018-Dec-09 22:30S 32°40' E 152°42'814.9
2018-Dec-09 22:00S 32°34' E 152°48'4367.3
2018-Dec-09 22:00S 32°30' E 152°48'1313.0 350 / 201015.010.8 23.418.327.7
2018-Dec-09 21:00S 32°18' E 152°54'1313.0 350 / 201015.010.8 23.418.327.7
2018-Dec-09 20:00S 32°06' E 153°00'1918.7 350 / 201015.010.8 23.418.327.7
2018-Dec-09 19:00S 31°48' E 153°06'3015.2 350 / 201015.010.8 23.418.327.7
2018-Dec-09 17:00S 31°18' E 153°12'1313.1 350 / 201019.0
2018-Dec-09 16:00S 31°06' E 153°18'1918.7 350 / 201019.0
2018-Dec-09 15:00S 30°48' E 153°24'1313.1 020 / 201019.0
2018-Dec-09 14:00S 30°36' E 153°30'1212.0 020 / 201019.0
2018-Dec-09 13:00S 30°24' E 153°30'1918.7 020 / 141019.0
2018-Dec-09 12:00S 30°06' E 153°36'1818.0 020 / 121019.010.8 23.418.327.7
2018-Dec-09 11:00S 29°48' E 153°36'1313.1 030 / 171019.010.8 23.418.327.7
2018-Dec-09 10:00S 29°36' E 153°42'1818.0 050 / 171018.0
2018-Dec-09 09:00S 29°18' E 153°42'3015.2 080 / 171017.0
2018-Dec-09 07:00S 28°48' E 153°48'3015.0 130 / 151018.010.8 23.418.327.7
2018-Dec-09 05:00S 28°18' E 153°48'2424.0 130 / 151018.0
2018-Dec-09 04:00S 27°54' E 153°48'598.3 110 / 151018.010.8 23.418.327.7
2018-Dec-09 03:57S 27°58' E 153°51'715.7
2018-Dec-09 03:31S 27°51' E 153°50'816.2
2018-Dec-09 03:01S 27°43' E 153°49'2112.1
2018-Dec-09 03:00S 27°42' E 153°48'1114.9 120 / 181018.010.8 23.418.327.7
2018-Dec-09 02:16S 27°31' E 153°49'726.1
2018-Dec-09 02:00S 27°24' E 153°48'118.0 110 / 201018.010.8 23.418.327.7
2018-Dec-09 01:56S 27°25' E 153°48'918.7
2018-Dec-09 01:26S 27°16' E 153°47'818.1
2018-Dec-09 01:00S 27°08' E 153°47'9620.7
2018-Dec-09 01:00S 27°00' E 153°42'5 7.6 110 / 201018.0
2018-Dec-09 00:19S 26°56' E 153°46'2062.8
2018-Dec-09 00:00S 26°36' E 153°42'14613.0 110 / 201015.0
2018-Dec-08 23:58S 26°50' E 153°45'1414.6
2018-Dec-08 23:00S 26°36' E 153°42'1818.0 120 / 30
2018-Dec-08 22:00S 26°18' E 153°42'1818.0 120 / 301015.010.8 23.418.327.7
2018-Dec-08 21:00S 26°00' E 153°42'1918.8 120 / 301015.010.8 23.418.327.7
2018-Dec-08 20:00S 25°42' E 153°36'1212.0 120 / 301015.010.8 23.418.327.7
2018-Dec-08 19:00S 25°30' E 153°36'3618.0 120 / 301015.010.8 23.418.327.7
2018-Dec-08 17:00S 24°54' E 153°36'3015.2 120 / 301015.0
2018-Dec-08 15:00S 24°24' E 153°30'1212.5 130 / 351015.0
2018-Dec-08 14:00S 24°18' E 153°18'1212.5 110 / 351015.0
2018-Dec-08 13:00S 24°12' E 153°06'1616.2 110 / 351017.0
2018-Dec-08 12:00S 24°24' E 152°54'1212.0 100 / 301017.0
2018-Dec-08 11:00S 24°36' E 152°54'1918.8 100 / 241017.0
2018-Dec-08 10:00S 24°54' E 152°48'2613.2 110 / 271018.0
2018-Dec-08 08:00S 25°18' E 153°00'0 0.0 110 / 151018.010.8 23.418.327.7
2018-Dec-08 07:00S 25°18' E 153°00'0 0.0 110 / 151018.010.8 23.418.327.7
2018-Dec-08 06:00S 25°18' E 153°00'0 0.0 1018.0
2018-Dec-08 05:00S 25°18' E 153°00'0 0.0 1018.0
2018-Dec-08 02:00S 25°18' E 153°00'0 0.0 110 / 151018.0
2018-Dec-08 00:00S 25°18' E 153°00'0 0.0 110 / 201018.010.8 23.418.327.7
2018-Dec-07 23:00S 25°18' E 153°00'0 0.0 110 / 251018.010.8 23.418.327.7
2018-Dec-07 22:00S 25°18' E 153°00'1616.2 110 / 301018.010.8 23.418.327.7
2018-Dec-07 21:00S 25°06' E 152°48'1212.0 130 / 351016.010.8 23.418.327.7
2018-Dec-07 20:00S 24°54' E 152°48'3618.0 130 / 351016.010.8 23.418.327.7
2018-Dec-07 18:00S 24°18' E 152°48'1212.0 130 / 451014.0
2018-Dec-07 17:00S 24°06' E 152°48'1212.0 130 / 451014.0
2018-Dec-07 16:00S 23°54' E 152°48'1313.2 130 / 451014.0
2018-Dec-07 15:00S 23°42' E 152°42'1313.2 130 / 451014.0
2018-Dec-07 14:00S 23°30' E 152°36'1616.3
2018-Dec-07 13:00S 23°18' E 152°24'1616.3 130 / 401015.0
2018-Dec-07 12:00S 23°06' E 152°12'1616.3 140 / 371015.0
2018-Dec-07 11:00S 22°54' E 152°00'8 8.2 120 / 371015.0
2018-Dec-07 10:00S 22°48' E 151°54'2020.5 130 / 371014.0
2018-Dec-07 09:00S 22°36' E 151°36'8 8.2 130 / 401013.0
2018-Dec-07 08:00S 22°30' E 151°30'8 8.2 130 / 401014.0
2018-Dec-07 07:00S 22°24' E 151°24'5728.6 130 / 401013.0
2018-Dec-07 05:00S 21°48' E 150°36'0 0.0 1010.0
2018-Dec-07 04:00S 21°48' E 150°36'2110.6
2018-Dec-07 02:00S 21°30' E 150°24'1616.4
2018-Dec-07 01:00S 21°18' E 150°12'1313.2 130 / 401012.010.8 25.622.729.6
2018-Dec-07 00:00S 21°06' E 150°06'1616.4 130 / 401012.010.8 25.622.729.6
2018-Dec-06 23:00S 20°54' E 149°54'1312.7 130 / 401012.010.8 25.622.729.6
2018-Dec-06 22:00S 20°48' E 149°42'1313.2 130 / 401012.010.8 25.622.729.6
2018-Dec-06 21:00S 20°36' E 149°36'1616.4 130 / 401010.010.8 25.622.729.6
2018-Dec-06 20:00S 20°24' E 149°24'4515.1 130 / 401010.010.8 25.622.729.6
2018-Dec-06 17:00S 19°54' E 148°48'1312.8 120 / 321009.0
2018-Dec-06 16:00S 19°48' E 148°36'2120.8 140 / 321009.0
2018-Dec-06 15:00S 19°36' E 148°18'2311.7 120 / 391009.0
2018-Dec-06 13:00S 19°30' E 147°54'2120.8 140 / 301011.010.8
2018-Dec-06 12:00S 19°18' E 147°36'1716.5 130 / 331012.010.8
2018-Dec-06 11:00S 19°06' E 147°24'1717.0 160 / 331010.010.8
2018-Dec-06 10:00S 19°06' E 147°06'1111.3 160 / 231010.010.8
2018-Dec-06 09:00S 19°06' E 146°54'8 4.1 090 / 251008.010.8
2018-Dec-06 07:00S 19°12' E 146°48'0 0.0 090 / 251008.0
2018-Dec-06 06:00S 19°12' E 146°48'0 0.0 090 / 181007.0
2018-Dec-06 04:00S 19°12' E 146°48'0 0.0 090 / 181008.010.8
2018-Dec-06 03:00S 19°12' E 146°48'0 0.0 090 / 151010.010.8
2018-Dec-06 01:00S 19°12' E 146°48'6 2.0 090 / 151010.0
2018-Dec-05 22:00S 19°06' E 146°48'19 9.4 120 / 201010.010.8
2018-Dec-05 20:00S 18°48' E 146°42'4019.9 120 / 251010.0
2018-Dec-05 18:00S 18°12' E 146°24'0 0.0 090 / 221009.010.8
2018-Dec-05 17:00S 18°12' E 146°24'13 6.6 090 / 221009.010.8
2018-Dec-05 15:00S 18°00' E 146°18'1212.0 090 / 221009.010.8
2018-Dec-05 14:00S 17°48' E 146°18'1918.9 090 / 131009.010.8
2018-Dec-05 13:00S 17°30' E 146°12'1918.9 180 / 31009.010.8
2018-Dec-05 12:00S 17°12' E 146°06'1313.3 180 / 31009.0
2018-Dec-05 11:00S 17°00' E 146°00'1212.0 100 / 121008.0
2018-Dec-05 10:00S 16°48' E 146°00'1111.5 130 / 81007.0
2018-Dec-05 09:00S 16°48' E 145°48'8 4.2 050 / 61008.010.8
2018-Dec-05 07:00S 16°54' E 145°42'0 0.0 050 / 61006.0
2018-Dec-05 05:00S 16°54' E 145°42'0 0.0 020 / 201005.0
2018-Dec-05 04:00S 16°54' E 145°42'0 0.0 020 / 201007.0
2018-Dec-05 03:00S 16°54' E 145°42'0 0.0 020 / 201007.0
2018-Dec-05 02:00S 16°54' E 145°42'0 0.0 020 / 201007.0
2018-Dec-05 01:00S 16°54' E 145°42'0 0.0 020 / 20
2018-Dec-05 00:00S 16°54' E 145°42'8 2.8 020 / 111008.0
2018-Dec-04 21:00S 16°48' E 145°48'18 9.1 210 / 41008.0
2018-Dec-04 19:00S 16°42' E 146°06'1313.3 010 / 111006.0
2018-Dec-04 18:00S 16°30' E 146°12'1313.0 010 / 111006.0
2018-Dec-04 17:00S 16°24' E 146°24'1716.6 320 / 101006.0
2018-Dec-04 16:00S 16°12' E 146°36'1313.0 030 / 141007.0
2018-Dec-04 15:00S 16°06' E 146°48'1313.3 030 / 141007.0
2018-Dec-04 14:00S 15°54' E 146°54'1313.0 030 / 141009.0
2018-Dec-04 13:00S 15°48' E 147°06'1313.0 020 / 71009.0
2018-Dec-04 12:00S 15°42' E 147°18'1716.7 040 / 171008.0
2018-Dec-04 11:00S 15°30' E 147°30'1716.7 020 / 81008.0
2018-Dec-04 10:00S 15°18' E 147°42'1716.7 040 / 81007.0
2018-Dec-04 09:00S 15°06' E 147°54'1716.7 270 / 71007.010.8 28.723.631.2
2018-Dec-04 08:00S 14°54' E 148°06'1313.1 270 / 71007.010.8 28.723.631.2
2018-Dec-04 07:00S 14°48' E 148°18'5819.5 270 / 71010.010.8 28.723.631.2
2018-Dec-04 04:00S 14°06' E 149°00'0 0.0 270 / 71010.0
2018-Dec-04 03:00S 14°06' E 149°00'1716.7 270 / 71010.0
2018-Dec-04 02:00S 13°54' E 149°12'2914.7 270 / 71010.0
2018-Dec-04 00:00S 13°36' E 149°36'1313.3 290 / 71010.010.8 28.723.631.2
2018-Dec-03 23:00S 13°24' E 149°42'1313.1 290 / 71010.010.8 28.723.631.2
2018-Dec-03 22:00S 13°18' E 149°54'1716.7 290 / 71010.0 27.722.631.2
2018-Dec-03 21:00S 13°06' E 150°06'1716.8 310 / 61009.0 27.722.631.2
2018-Dec-03 20:00S 12°54' E 150°18'3014.8 310 / 51009.0 27.722.631.2
2018-Dec-03 18:00S 12°36' E 150°42'1716.8 250 / 71009.0
2018-Dec-03 17:00S 12°24' E 150°54'1716.8 250 / 71011.0
2018-Dec-03 16:00S 12°12' E 151°06'1313.4 250 / 71011.0
2018-Dec-03 15:00S 12°00' E 151°12'4314.2 270 / 7
2018-Dec-03 12:00S 11°36' E 151°48'1716.8 270 / 71011.0
2018-Dec-03 11:00S 11°24' E 152°00'1313.4 310 / 51011.0
2018-Dec-03 10:00S 11°12' E 152°06'1313.4 270 / 21010.0
2018-Dec-03 09:00S 11°00' E 152°00'1918.7 270 / 21008.0
2018-Dec-03 08:00S 10°54' E 151°42'12 4.0 270 / 21008.0
2018-Dec-03 05:00S 10°42' E 151°42'0 0.0 270 / 21008.0
2018-Dec-03 04:00S 10°42' E 151°42'0 0.0 270 / 21008.0
2018-Dec-03 03:00S 10°42' E 151°42'0 0.0 270 / 21009.0
2018-Dec-03 01:00S 10°42' E 151°42'0 0.0 270 / 81010.0
2018-Dec-03 00:00S 10°42' E 151°42'0 0.0 220 / 61010.0
2018-Dec-02 23:00S 10°42' E 151°42'0 0.0 220 / 81011.0
2018-Dec-02 22:00S 10°42' E 151°42'6 6.0 270 / 81010.0
2018-Dec-02 21:00S 10°48' E 151°42'1211.8 240 / 101009.0
2018-Dec-02 20:00S 10°48' E 151°54'6 5.9 240 / 101009.0
2018-Dec-02 19:00S 10°48' E 152°00'1212.0 310 / 111008.0
2018-Dec-02 18:00S 10°36' E 152°00'1313.4 1008.0
2018-Dec-02 17:00S 10°24' E 151°54'1313.2 1008.0
2018-Dec-02 16:00S 10°18' E 151°42'   1008.0
Track history (hours):
 
Tides and Currents Weather Stations Pressure Air Temp Water Temp Dewpoint Dewpoint Depression Visibility Wind Speed Wind Dir Waves Ship Positions

Seabourn Sojourn

Last reported at 2018-Dec-12 14:00 UTC. Time now 2018-Dec-12 15:06 UTC.
Position S 37°12' E 150°18'.

Length 198 m; draft 6.7 m.

Type: Ship. MMSI: 311027100.

Wind from 040 at 30 knots

Date/timePositionNaut miles runAvg speedWind from/ knotsBaromVisibWave heightAir tempDewpointWater temp
2018-Dec-12 14:00S 37°12' E 150°18'1212.0 040 / 30
2018-Dec-12 13:00S 37°00' E 150°18'1818.0
2018-Dec-12 12:00S 36°42' E 150°18'1212.0 010 / 261010.0
2018-Dec-12 11:00S 36°30' E 150°18'1212.0 030 / 221010.0
2018-Dec-12 10:00S 36°18' E 150°18'1818.0 050 / 191010.0
2018-Dec-12 09:00S 36°00' E 150°18'1312.9 050 / 191010.0
2018-Dec-12 08:00S 35°48' E 150°12'6 1.5 050 / 231009.0
2018-Dec-12 04:00S 35°42' E 150°12'0 0.0 060 / 211015.010.8
2018-Dec-12 03:00S 35°42' E 150°12'0 0.0 060 / 211015.010.8
2018-Dec-12 01:00S 35°42' E 150°12'0 0.0 060 / 211015.010.8
2018-Dec-11 22:00S 35°42' E 150°12'0 0.0 030 / 10 10.8
2018-Dec-11 21:00S 35°42' E 150°12'19 6.3 080 / 5 10.8
2018-Dec-11 18:00S 35°30' E 150°30'4611.6 080 / 101016.0
2018-Dec-11 14:00S 34°54' E 151°06'2512.3 1018.0
2018-Dec-11 12:00S 34°30' E 151°12'2012.4 120 / 101018.0
2018-Dec-11 10:25S 34°11' E 151°19'612.3
2018-Dec-11 09:55S 34°06' E 151°22'512.4
2018-Dec-11 09:31S 34°01' E 151°25'511.0
2018-Dec-11 09:00S 33°56' E 151°25'612.2
2018-Dec-11 08:30S 33°51' E 151°20'4 8.7
2018-Dec-11 08:00S 33°51' E 151°15'4376.7
2018-Dec-11 08:00S 33°48' E 151°12'4 7.4 110 / 101018.0 5.4
2018-Dec-11 07:29S 33°52' E 151°11'0 0.3
2018-Dec-11 06:59S 33°52' E 151°11'0 0.0
2018-Dec-11 06:23S 33°52' E 151°11'0 0.0
2018-Dec-11 05:59S 33°52' E 151°11'0 0.0
2018-Dec-11 05:29S 33°52' E 151°11'0 0.0
2018-Dec-11 04:59S 33°52' E 151°11'0 0.0
2018-Dec-11 04:23S 33°52' E 151°11'0 0.0
2018-Dec-11 03:59S 33°52' E 151°11'0 0.0
2018-Dec-11 03:29S 33°52' E 151°11'0 0.0
2018-Dec-11 02:59S 33°52' E 151°11'0 0.0
2018-Dec-11 02:17S 33°52' E 151°11'0 0.0
2018-Dec-11 01:53S 33°52' E 151°11'0 0.0
2018-Dec-11 01:23S 33°52' E 151°11'0 0.0
2018-Dec-11 00:53S 33°52' E 151°11'0 0.0
2018-Dec-11 00:29S 33°52' E 151°11'0 0.0
2018-Dec-10 23:53S 33°52' E 151°11'0 0.0
2018-Dec-10 23:26S 33°52' E 151°11'613.1
2018-Dec-10 23:00S 33°48' E 151°06'6448.3 170 / 81020.0
2018-Dec-10 22:59S 33°52' E 151°11'0 0.0
2018-Dec-10 22:29S 33°52' E 151°11'611.7
2018-Dec-10 22:00S 33°48' E 151°06'6 8.0 170 / 81019.0
2018-Dec-10 21:17S 33°52' E 151°11'620.0
2018-Dec-10 21:00S 33°48' E 151°06'6438.7 170 / 81019.0
2018-Dec-10 20:59S 33°52' E 151°11'6 5.8
2018-Dec-10 20:00S 33°48' E 151°06'6458.2 160 / 51019.010.8 23.418.327.7
2018-Dec-10 19:59S 33°52' E 151°11'0 0.0
2018-Dec-10 19:29S 33°52' E 151°11'0 0.0
2018-Dec-10 18:29S 33°52' E 151°11'611.8
2018-Dec-10 18:00S 33°48' E 151°06'651.0 160 / 51018.0
2018-Dec-10 17:53S 33°52' E 151°11'0 0.0
2018-Dec-10 17:23S 33°52' E 151°11'614.8
2018-Dec-10 17:00S 33°48' E 151°06'6468.6 090 / 21018.0
2018-Dec-10 16:59S 33°52' E 151°11'0 0.0
2018-Dec-10 16:17S 33°52' E 151°11'619.9
2018-Dec-10 16:00S 33°48' E 151°06'6491.0 090 / 21018.0
2018-Dec-10 15:59S 33°52' E 151°11'0 0.0
2018-Dec-10 15:29S 33°52' E 151°11'611.8
2018-Dec-10 15:00S 33°48' E 151°06'6458.2 090 / 21019.0
2018-Dec-10 14:59S 33°52' E 151°11'0 0.0
2018-Dec-10 14:23S 33°52' E 151°11'614.8
2018-Dec-10 14:00S 33°48' E 151°06'627.0 090 / 21019.0
2018-Dec-10 13:47S 33°52' E 151°11'0 0.0
2018-Dec-10 13:29S 33°52' E 151°11'0 0.0
2018-Dec-10 12:59S 33°52' E 151°11'0 0.0
2018-Dec-10 12:20S 33°52' E 151°11'6 4.3
2018-Dec-10 11:00S 33°48' E 151°06'0 0.0 040 / 61018.0
2018-Dec-10 09:00S 33°48' E 151°06'0 0.0 040 / 61017.0
2018-Dec-10 08:00S 33°48' E 151°06'6 9.3 040 / 61016.0
2018-Dec-10 07:23S 33°52' E 151°11'614.8
2018-Dec-10 07:00S 33°48' E 151°06'6448.6 010 / 11014.0
2018-Dec-10 06:59S 33°52' E 151°11'0 0.0
2018-Dec-10 06:23S 33°52' E 151°11'1 2.0
2018-Dec-10 06:00S 33°51' E 151°12'3 5.1
2018-Dec-10 05:29S 33°51' E 151°15'511.1
2018-Dec-10 05:00S 33°50' E 151°21'3224.1
2018-Dec-10 05:00S 33°48' E 151°18'817.0 020 / 71014.0
2018-Dec-10 04:30S 33°45' E 151°27'815.7
2018-Dec-10 04:01S 33°40' E 151°34'5288.1
2018-Dec-10 04:00S 33°36' E 151°30'2713.5 020 / 71015.0
2018-Dec-10 02:00S 33°18' E 151°54'1720.1 010 / 81015.0
2018-Dec-10 01:09S 33°08' E 152°11'214.4
2018-Dec-10 01:00S 33°07' E 152°12'5341.1
2018-Dec-10 01:00S 33°06' E 152°06'1122.9 150 / 3
2018-Dec-10 00:30S 33°01' E 152°18'713.9
2018-Dec-10 00:00S 32°56' E 152°24'815.1
2018-Dec-09 23:30S 32°51' E 152°30'715.0
2018-Dec-09 23:00S 32°46' E 152°36'4240.5
2018-Dec-09 23:00S 32°42' E 152°36'611.7 330 / 181016.010.8 23.418.327.7
2018-Dec-09 22:30S 32°40' E 152°42'814.9
2018-Dec-09 22:00S 32°34' E 152°48'4367.3
2018-Dec-09 22:00S 32°30' E 152°48'1313.0 350 / 201015.010.8 23.418.327.7
2018-Dec-09 21:00S 32°18' E 152°54'1313.0 350 / 201015.010.8 23.418.327.7
2018-Dec-09 20:00S 32°06' E 153°00'1918.7 350 / 201015.010.8 23.418.327.7
2018-Dec-09 19:00S 31°48' E 153°06'3015.2 350 / 201015.010.8 23.418.327.7
2018-Dec-09 17:00S 31°18' E 153°12'1313.1 350 / 201019.0
2018-Dec-09 16:00S 31°06' E 153°18'1918.7 350 / 201019.0
2018-Dec-09 15:00S 30°48' E 153°24'1313.1 020 / 201019.0
2018-Dec-09 14:00S 30°36' E 153°30'1212.0 020 / 201019.0
2018-Dec-09 13:00S 30°24' E 153°30'1918.7 020 / 141019.0
2018-Dec-09 12:00S 30°06' E 153°36'1818.0 020 / 121019.010.8 23.418.327.7
2018-Dec-09 11:00S 29°48' E 153°36'1313.1 030 / 171019.010.8 23.418.327.7
2018-Dec-09 10:00S 29°36' E 153°42'1818.0 050 / 171018.0
2018-Dec-09 09:00S 29°18' E 153°42'3015.2 080 / 171017.0
2018-Dec-09 07:00S 28°48' E 153°48'3015.0 130 / 151018.010.8 23.418.327.7
2018-Dec-09 05:00S 28°18' E 153°48'2424.0 130 / 151018.0
2018-Dec-09 04:00S 27°54' E 153°48'598.3 110 / 151018.010.8 23.418.327.7
2018-Dec-09 03:57S 27°58' E 153°51'715.7
2018-Dec-09 03:31S 27°51' E 153°50'816.2
2018-Dec-09 03:01S 27°43' E 153°49'2112.1
2018-Dec-09 03:00S 27°42' E 153°48'1114.9 120 / 181018.010.8 23.418.327.7
2018-Dec-09 02:16S 27°31' E 153°49'726.1
2018-Dec-09 02:00S 27°24' E 153°48'118.0 110 / 201018.010.8 23.418.327.7
2018-Dec-09 01:56S 27°25' E 153°48'918.7
2018-Dec-09 01:26S 27°16' E 153°47'818.1
2018-Dec-09 01:00S 27°08' E 153°47'9620.7
2018-Dec-09 01:00S 27°00' E 153°42'5 7.6 110 / 201018.0
2018-Dec-09 00:19S 26°56' E 153°46'2062.8
2018-Dec-09 00:00S 26°36' E 153°42'14613.0 110 / 201015.0
2018-Dec-08 23:58S 26°50' E 153°45'1414.6
2018-Dec-08 23:00S 26°36' E 153°42'1818.0 120 / 30
2018-Dec-08 22:00S 26°18' E 153°42'1818.0 120 / 301015.010.8 23.418.327.7
2018-Dec-08 21:00S 26°00' E 153°42'1918.8 120 / 301015.010.8 23.418.327.7
2018-Dec-08 20:00S 25°42' E 153°36'1212.0 120 / 301015.010.8 23.418.327.7
2018-Dec-08 19:00S 25°30' E 153°36'3618.0 120 / 301015.010.8 23.418.327.7
2018-Dec-08 17:00S 24°54' E 153°36'3015.2 120 / 301015.0
2018-Dec-08 15:00S 24°24' E 153°30'1212.5 130 / 351015.0
2018-Dec-08 14:00S 24°18' E 153°18'1212.5 110 / 351015.0
2018-Dec-08 13:00S 24°12' E 153°06'1616.2 110 / 351017.0
2018-Dec-08 12:00S 24°24' E 152°54'1212.0 100 / 301017.0
2018-Dec-08 11:00S 24°36' E 152°54'1918.8 100 / 241017.0
2018-Dec-08 10:00S 24°54' E 152°48'2613.2 110 / 271018.0
2018-Dec-08 08:00S 25°18' E 153°00'0 0.0 110 / 151018.010.8 23.418.327.7
2018-Dec-08 07:00S 25°18' E 153°00'0 0.0 110 / 151018.010.8 23.418.327.7
2018-Dec-08 06:00S 25°18' E 153°00'0 0.0 1018.0
2018-Dec-08 05:00S 25°18' E 153°00'0 0.0 1018.0
2018-Dec-08 02:00S 25°18' E 153°00'0 0.0 110 / 151018.0
2018-Dec-08 00:00S 25°18' E 153°00'0 0.0 110 / 201018.010.8 23.418.327.7
2018-Dec-07 23:00S 25°18' E 153°00'0 0.0 110 / 251018.010.8 23.418.327.7
2018-Dec-07 22:00S 25°18' E 153°00'1616.2 110 / 301018.010.8 23.418.327.7
2018-Dec-07 21:00S 25°06' E 152°48'1212.0 130 / 351016.010.8 23.418.327.7
2018-Dec-07 20:00S 24°54' E 152°48'3618.0 130 / 351016.010.8 23.418.327.7
2018-Dec-07 18:00S 24°18' E 152°48'1212.0 130 / 451014.0
2018-Dec-07 17:00S 24°06' E 152°48'1212.0 130 / 451014.0
2018-Dec-07 16:00S 23°54' E 152°48'1313.2 130 / 451014.0
2018-Dec-07 15:00S 23°42' E 152°42'1313.2 130 / 451014.0
2018-Dec-07 14:00S 23°30' E 152°36'1616.3
2018-Dec-07 13:00S 23°18' E 152°24'1616.3 130 / 401015.0
2018-Dec-07 12:00S 23°06' E 152°12'1616.3 140 / 371015.0
2018-Dec-07 11:00S 22°54' E 152°00'8 8.2 120 / 371015.0
2018-Dec-07 10:00S 22°48' E 151°54'2020.5 130 / 371014.0
2018-Dec-07 09:00S 22°36' E 151°36'8 8.2 130 / 401013.0
2018-Dec-07 08:00S 22°30' E 151°30'8 8.2 130 / 401014.0
2018-Dec-07 07:00S 22°24' E 151°24'5728.6 130 / 401013.0
2018-Dec-07 05:00S 21°48' E 150°36'0 0.0 1010.0
2018-Dec-07 04:00S 21°48' E 150°36'2110.6
2018-Dec-07 02:00S 21°30' E 150°24'1616.4
2018-Dec-07 01:00S 21°18' E 150°12'1313.2 130 / 401012.010.8 25.622.729.6
2018-Dec-07 00:00S 21°06' E 150°06'1616.4 130 / 401012.010.8 25.622.729.6
2018-Dec-06 23:00S 20°54' E 149°54'1312.7 130 / 401012.010.8 25.622.729.6
2018-Dec-06 22:00S 20°48' E 149°42'1313.2 130 / 401012.010.8 25.622.729.6
2018-Dec-06 21:00S 20°36' E 149°36'1616.4 130 / 401010.010.8 25.622.729.6
2018-Dec-06 20:00S 20°24' E 149°24'4515.1 130 / 401010.010.8 25.622.729.6
2018-Dec-06 17:00S 19°54' E 148°48'1312.8 120 / 321009.0
2018-Dec-06 16:00S 19°48' E 148°36'2120.8 140 / 321009.0
2018-Dec-06 15:00S 19°36' E 148°18'2311.7 120 / 391009.0
2018-Dec-06 13:00S 19°30' E 147°54'2120.8 140 / 301011.010.8
2018-Dec-06 12:00S 19°18' E 147°36'1716.5 130 / 331012.010.8
2018-Dec-06 11:00S 19°06' E 147°24'1717.0 160 / 331010.010.8
2018-Dec-06 10:00S 19°06' E 147°06'1111.3 160 / 231010.010.8
2018-Dec-06 09:00S 19°06' E 146°54'8 4.1 090 / 251008.010.8
2018-Dec-06 07:00S 19°12' E 146°48'0 0.0 090 / 251008.0
2018-Dec-06 06:00S 19°12' E 146°48'0 0.0 090 / 181007.0
2018-Dec-06 04:00S 19°12' E 146°48'0 0.0 090 / 181008.010.8
2018-Dec-06 03:00S 19°12' E 146°48'0 0.0 090 / 151010.010.8
2018-Dec-06 01:00S 19°12' E 146°48'6 2.0 090 / 151010.0
2018-Dec-05 22:00S 19°06' E 146°48'19 9.4 120 / 201010.010.8
2018-Dec-05 20:00S 18°48' E 146°42'4019.9 120 / 251010.0
2018-Dec-05 18:00S 18°12' E 146°24'0 0.0 090 / 221009.010.8
2018-Dec-05 17:00S 18°12' E 146°24'13 6.6 090 / 221009.010.8
2018-Dec-05 15:00S 18°00' E 146°18'1212.0 090 / 221009.010.8
2018-Dec-05 14:00S 17°48' E 146°18'1918.9 090 / 131009.010.8
2018-Dec-05 13:00S 17°30' E 146°12'1918.9 180 / 31009.010.8
2018-Dec-05 12:00S 17°12' E 146°06'1313.3 180 / 31009.0
2018-Dec-05 11:00S 17°00' E 146°00'1212.0 100 / 121008.0
2018-Dec-05 10:00S 16°48' E 146°00'1111.5 130 / 81007.0
2018-Dec-05 09:00S 16°48' E 145°48'8 4.2 050 / 61008.010.8
2018-Dec-05 07:00S 16°54' E 145°42'0 0.0 050 / 61006.0
2018-Dec-05 05:00S 16°54' E 145°42'0 0.0 020 / 201005.0
2018-Dec-05 04:00S 16°54' E 145°42'0 0.0 020 / 201007.0
2018-Dec-05 03:00S 16°54' E 145°42'0 0.0 020 / 201007.0
2018-Dec-05 02:00S 16°54' E 145°42'0 0.0 020 / 201007.0
2018-Dec-05 01:00S 16°54' E 145°42'0 0.0 020 / 20
2018-Dec-05 00:00S 16°54' E 145°42'8 2.8 020 / 111008.0
2018-Dec-04 21:00S 16°48' E 145°48'18 9.1 210 / 41008.0
2018-Dec-04 19:00S 16°42' E 146°06'1313.3 010 / 111006.0
2018-Dec-04 18:00S 16°30' E 146°12'1313.0 010 / 111006.0
2018-Dec-04 17:00S 16°24' E 146°24'1716.6 320 / 101006.0
2018-Dec-04 16:00S 16°12' E 146°36'1313.0 030 / 141007.0
2018-Dec-04 15:00S 16°06' E 146°48'1313.3 030 / 141007.0
2018-Dec-04 14:00S 15°54' E 146°54'1313.0 030 / 141009.0
2018-Dec-04 13:00S 15°48' E 147°06'1313.0 020 / 71009.0
2018-Dec-04 12:00S 15°42' E 147°18'1716.7 040 / 171008.0
2018-Dec-04 11:00S 15°30' E 147°30'1716.7 020 / 81008.0
2018-Dec-04 10:00S 15°18' E 147°42'1716.7 040 / 81007.0
2018-Dec-04 09:00S 15°06' E 147°54'1716.7 270 / 71007.010.8 28.723.631.2
2018-Dec-04 08:00S 14°54' E 148°06'1313.1 270 / 71007.010.8 28.723.631.2
2018-Dec-04 07:00S 14°48' E 148°18'5819.5 270 / 71010.010.8 28.723.631.2
2018-Dec-04 04:00S 14°06' E 149°00'0 0.0 270 / 71010.0
2018-Dec-04 03:00S 14°06' E 149°00'1716.7 270 / 71010.0
2018-Dec-04 02:00S 13°54' E 149°12'2914.7 270 / 71010.0
2018-Dec-04 00:00S 13°36' E 149°36'1313.3 290 / 71010.010.8 28.723.631.2
2018-Dec-03 23:00S 13°24' E 149°42'1313.1 290 / 71010.010.8 28.723.631.2
2018-Dec-03 22:00S 13°18' E 149°54'1716.7 290 / 71010.0 27.722.631.2
2018-Dec-03 21:00S 13°06' E 150°06'1716.8 310 / 61009.0 27.722.631.2
2018-Dec-03 20:00S 12°54' E 150°18'3014.8 310 / 51009.0 27.722.631.2
2018-Dec-03 18:00S 12°36' E 150°42'1716.8 250 / 71009.0
2018-Dec-03 17:00S 12°24' E 150°54'1716.8 250 / 71011.0
2018-Dec-03 16:00S 12°12' E 151°06'1313.4 250 / 71011.0
2018-Dec-03 15:00S 12°00' E 151°12'4314.2 270 / 7
2018-Dec-03 12:00S 11°36' E 151°48'1716.8 270 / 71011.0
2018-Dec-03 11:00S 11°24' E 152°00'1313.4 310 / 51011.0
2018-Dec-03 10:00S 11°12' E 152°06'1313.4 270 / 21010.0
2018-Dec-03 09:00S 11°00' E 152°00'1918.7 270 / 21008.0
2018-Dec-03 08:00S 10°54' E 151°42'12 4.0 270 / 21008.0
2018-Dec-03 05:00S 10°42' E 151°42'0 0.0 270 / 21008.0
2018-Dec-03 04:00S 10°42' E 151°42'0 0.0 270 / 21008.0
2018-Dec-03 03:00S 10°42' E 151°42'0 0.0 270 / 21009.0
2018-Dec-03 01:00S 10°42' E 151°42'0 0.0 270 / 81010.0
2018-Dec-03 00:00S 10°42' E 151°42'0 0.0 220 / 61010.0
2018-Dec-02 23:00S 10°42' E 151°42'0 0.0 220 / 81011.0
2018-Dec-02 22:00S 10°42' E 151°42'6 6.0 270 / 81010.0
2018-Dec-02 21:00S 10°48' E 151°42'1211.8 240 / 101009.0
2018-Dec-02 20:00S 10°48' E 151°54'6 5.9 240 / 101009.0
2018-Dec-02 19:00S 10°48' E 152°00'1212.0 310 / 111008.0
2018-Dec-02 18:00S 10°36' E 152°00'1313.4 1008.0
2018-Dec-02 17:00S 10°24' E 151°54'1313.2 1008.0
2018-Dec-02 16:00S 10°18' E 151°42'   1008.0

Dump ship's entire track history